Accueil
METAR-TAF:

METAR-TAF

Aéroports :

Aurillac, France

Aéroport d'Aurillac

latitude: 44-53N, longitude: 002-25E, altitude: 639 m

Observation

Le bulletin a été fait il y a 34 minutes, à 01:30 UTC
Vent 14 kt de sud-est
Température 9°C
Humidité 87%
Pression 984 hPa
Visibilité 10 km ou plus
pluie faible

METAR: LFLW 110130Z AUTO 13014KT 9999 -RA NSC 09/07 Q0984

Heure: 03:04 (02:04 UTC)

Prévision

Le bulletin a été fait il y a 12 heures et 4 minutes, à 14:00 UTC
Prévision valable du 10 à 15 UTC au 10 à 24 UTC
Vent 15 kt de ouest/sud-ouest avec des rafales jusqu'à 25 kt
Visibilité: 5000 m
Nuages fragmentés à une hauteur de 1000 ft
Ciel couvert à une hauteur de 1800 ft
pluie
Temporairement
du 10 à 15 UTC au 10 à 24 UTC
Visibilité: 3000 m
Ciel couvert à une hauteur de 500 ft
forte pluie, brume

TAF: LFLW 101400Z 1015/1024 24015G25KT 5000 RA BKN010 OVC018 TEMPO 1015/1024 3000 +RA BR OVC005

Observations et prévisions météorologiques de plus de 4000 aéroports (messages METAR et TAF).

Les stations disponibles sont représentées par des disques jaunes et rouges sur la carte.

Passer la souris dessus pour voir le nom de la station.

Cliquer dessus pour voir les observations et prévisions météorologiques.

Pour changer de carte: cliquez sur les boutons verts avec une croix noire pour zoomer, sur le bouton vert avec un tiret pour effectuer un zoom arrière, ou sur les flèches vertes pour les cartes adjacentes.


METAR-TAF: